sensor_id;sensor_type;location;lat;lon;timestamp;temperature;humidity
43541;DHT22;29549;40.386;-3.710;2023-05-16T00:05:28;15.70;42.20
43541;DHT22;29549;40.386;-3.710;2023-05-16T00:15:29;15.40;42.60
43541;DHT22;29549;40.386;-3.710;2023-05-16T00:25:29;15.50;42.40
43541;DHT22;29549;40.386;-3.710;2023-05-16T00:35:30;15.20;42.90
43541;DHT22;29549;40.386;-3.710;2023-05-16T00:45:31;15.20;43.70
43541;DHT22;29549;40.386;-3.710;2023-05-16T00:55:31;15.20;44.10
43541;DHT22;29549;40.386;-3.710;2023-05-16T01:05:32;15.00;44.40
43541;DHT22;29549;40.386;-3.710;2023-05-16T01:15:55;14.90;44.50
43541;DHT22;29549;40.386;-3.710;2023-05-16T01:26:04;15.00;43.80
43541;DHT22;29549;40.386;-3.710;2023-05-16T01:46:11;14.70;44.00
43541;DHT22;29549;40.386;-3.710;2023-05-16T01:56:13;14.50;44.20
43541;DHT22;29549;40.386;-3.710;2023-05-16T02:06:14;14.40;44.80
43541;DHT22;29549;40.386;-3.710;2023-05-16T02:16:15;14.30;45.20
43541;DHT22;29549;40.386;-3.710;2023-05-16T02:26:16;14.00;45.80
43541;DHT22;29549;40.386;-3.710;2023-05-16T02:36:16;14.10;45.40
43541;DHT22;29549;40.386;-3.710;2023-05-16T02:46:27;13.90;45.60
43541;DHT22;29549;40.386;-3.710;2023-05-16T02:56:27;13.80;45.90
43541;DHT22;29549;40.386;-3.710;2023-05-16T03:06:28;13.90;45.60
43541;DHT22;29549;40.386;-3.710;2023-05-16T03:16:29;13.90;45.80
43541;DHT22;29549;40.386;-3.710;2023-05-16T03:26:30;13.80;46.20
43541;DHT22;29549;40.386;-3.710;2023-05-16T03:36:31;13.90;46.30
43541;DHT22;29549;40.386;-3.710;2023-05-16T03:46:31;13.70;46.50
43541;DHT22;29549;40.386;-3.710;2023-05-16T03:56:32;13.70;46.00
43541;DHT22;29549;40.386;-3.710;2023-05-16T04:06:32;13.50;45.80
43541;DHT22;29549;40.386;-3.710;2023-05-16T04:16:33;13.50;46.30
43541;DHT22;29549;40.386;-3.710;2023-05-16T04:26:34;13.50;46.30
43541;DHT22;29549;40.386;-3.710;2023-05-16T04:36:35;13.40;47.10
43541;DHT22;29549;40.386;-3.710;2023-05-16T04:46:36;13.50;47.10
43541;DHT22;29549;40.386;-3.710;2023-05-16T04:56:37;13.50;46.30
43541;DHT22;29549;40.386;-3.710;2023-05-16T05:17:09;13.30;45.30
43541;DHT22;29549;40.386;-3.710;2023-05-16T05:27:09;13.20;44.70
43541;DHT22;29549;40.386;-3.710;2023-05-16T05:37:10;13.20;44.20
43541;DHT22;29549;40.386;-3.710;2023-05-16T05:47:11;13.20;44.30
43541;DHT22;29549;40.386;-3.710;2023-05-16T05:57:11;13.40;43.20
43541;DHT22;29549;40.386;-3.710;2023-05-16T06:07:12;13.50;42.60
43541;DHT22;29549;40.386;-3.710;2023-05-16T06:17:15;13.40;43.60
43541;DHT22;29549;40.386;-3.710;2023-05-16T06:27:15;13.60;42.70
43541;DHT22;29549;40.386;-3.710;2023-05-16T06:37:16;13.70;41.30
43541;DHT22;29549;40.386;-3.710;2023-05-16T06:47:17;13.90;40.20
43541;DHT22;29549;40.386;-3.710;2023-05-16T06:57:17;14.60;40.00
43541;DHT22;29549;40.386;-3.710;2023-05-16T07:07:18;15.20;39.90
43541;DHT22;29549;40.386;-3.710;2023-05-16T07:17:19;15.90;37.30
43541;DHT22;29549;40.386;-3.710;2023-05-16T07:27:19;16.20;36.40
43541;DHT22;29549;40.386;-3.710;2023-05-16T07:37:20;16.50;36.30
43541;DHT22;29549;40.386;-3.710;2023-05-16T07:47:21;16.80;35.50
43541;DHT22;29549;40.386;-3.710;2023-05-16T07:57:21;17.20;34.90
43541;DHT22;29549;40.386;-3.710;2023-05-16T08:07:22;17.40;34.90
43541;DHT22;29549;40.386;-3.710;2023-05-16T08:17:23;17.40;34.30
43541;DHT22;29549;40.386;-3.710;2023-05-16T08:27:24;17.50;34.20
43541;DHT22;29549;40.386;-3.710;2023-05-16T08:37:24;17.60;33.80
43541;DHT22;29549;40.386;-3.710;2023-05-16T08:47:25;17.70;34.50
43541;DHT22;29549;40.386;-3.710;2023-05-16T08:57:26;17.90;33.50
43541;DHT22;29549;40.386;-3.710;2023-05-16T09:07:27;17.90;33.20
43541;DHT22;29549;40.386;-3.710;2023-05-16T09:17:35;18.20;32.00
43541;DHT22;29549;40.386;-3.710;2023-05-16T09:27:37;18.00;31.10
43541;DHT22;29549;40.386;-3.710;2023-05-16T09:37:43;18.90;34.00
43541;DHT22;29549;40.386;-3.710;2023-05-16T09:47:44;19.00;31.00
43541;DHT22;29549;40.386;-3.710;2023-05-16T09:57:45;19.00;28.00
43541;DHT22;29549;40.386;-3.710;2023-05-16T10:07:46;18.80;28.20
43541;DHT22;29549;40.386;-3.710;2023-05-16T10:17:49;18.80;28.10
43541;DHT22;29549;40.386;-3.710;2023-05-16T10:27:51;19.30;31.40
43541;DHT22;29549;40.386;-3.710;2023-05-16T10:37:52;19.60;29.30
43541;DHT22;29549;40.386;-3.710;2023-05-16T10:48:00;19.40;27.40
43541;DHT22;29549;40.386;-3.710;2023-05-16T10:58:03;19.50;26.70
43541;DHT22;29549;40.386;-3.710;2023-05-16T11:08:04;19.50;28.40
43541;DHT22;29549;40.386;-3.710;2023-05-16T11:18:08;19.70;26.00
43541;DHT22;29549;40.386;-3.710;2023-05-16T11:28:11;19.70;27.00
43541;DHT22;29549;40.386;-3.710;2023-05-16T11:38:14;19.90;26.20
43541;DHT22;29549;40.386;-3.710;2023-05-16T11:48:18;20.10;25.70
43541;DHT22;29549;40.386;-3.710;2023-05-16T11:58:18;20.30;25.40
43541;DHT22;29549;40.386;-3.710;2023-05-16T12:08:20;20.40;24.70
43541;DHT22;29549;40.386;-3.710;2023-05-16T12:18:27;20.40;24.60
43541;DHT22;29549;40.386;-3.710;2023-05-16T12:28:31;20.40;24.00
43541;DHT22;29549;40.386;-3.710;2023-05-16T12:38:36;20.70;24.40
43541;DHT22;29549;40.386;-3.710;2023-05-16T12:48:37;20.70;24.20
43541;DHT22;29549;40.386;-3.710;2023-05-16T12:58:49;21.10;24.20
43541;DHT22;29549;40.386;-3.710;2023-05-16T13:08:50;21.20;23.60
43541;DHT22;29549;40.386;-3.710;2023-05-16T13:18:51;21.10;23.30
43541;DHT22;29549;40.386;-3.710;2023-05-16T13:28:52;21.40;22.80
43541;DHT22;29549;40.386;-3.710;2023-05-16T13:38:54;21.40;22.00
43541;DHT22;29549;40.386;-3.710;2023-05-16T13:48:54;21.50;22.20
43541;DHT22;29549;40.386;-3.710;2023-05-16T13:58:55;21.40;21.80
43541;DHT22;29549;40.386;-3.710;2023-05-16T14:08:56;21.70;22.00
43541;DHT22;29549;40.386;-3.710;2023-05-16T14:18:56;22.00;21.40
43541;DHT22;29549;40.386;-3.710;2023-05-16T14:28:57;22.20;21.50
43541;DHT22;29549;40.386;-3.710;2023-05-16T14:38:58;22.20;21.50
43541;DHT22;29549;40.386;-3.710;2023-05-16T14:48:58;22.20;21.70
43541;DHT22;29549;40.386;-3.710;2023-05-16T14:58:59;22.50;22.50
43541;DHT22;29549;40.386;-3.710;2023-05-16T15:09:00;22.70;21.80
43541;DHT22;29549;40.386;-3.710;2023-05-16T15:19:01;22.80;21.70
43541;DHT22;29549;40.386;-3.710;2023-05-16T15:29:02;22.70;21.90
43541;DHT22;29549;40.386;-3.710;2023-05-16T15:39:03;22.90;22.50
43541;DHT22;29549;40.386;-3.710;2023-05-16T15:49:03;23.00;22.30
43541;DHT22;29549;40.386;-3.710;2023-05-16T15:59:04;22.90;21.40
43541;DHT22;29549;40.386;-3.710;2023-05-16T16:09:05;23.00;22.30
43541;DHT22;29549;40.386;-3.710;2023-05-16T16:19:06;23.10;22.00
43541;DHT22;29549;40.386;-3.710;2023-05-16T16:29:06;23.20;21.80
43541;DHT22;29549;40.386;-3.710;2023-05-16T16:39:07;23.20;22.50
43541;DHT22;29549;40.386;-3.710;2023-05-16T16:49:09;23.20;22.40
43541;DHT22;29549;40.386;-3.710;2023-05-16T16:59:10;23.10;23.70
43541;DHT22;29549;40.386;-3.710;2023-05-16T17:09:10;23.10;27.20
43541;DHT22;29549;40.386;-3.710;2023-05-16T17:19:16;23.10;30.10
43541;DHT22;29549;40.386;-3.710;2023-05-16T17:29:16;23.10;24.30
43541;DHT22;29549;40.386;-3.710;2023-05-16T17:39:17;23.10;23.60
43541;DHT22;29549;40.386;-3.710;2023-05-16T17:49:18;22.90;24.60
43541;DHT22;29549;40.386;-3.710;2023-05-16T17:59:18;22.70;23.90
43541;DHT22;29549;40.386;-3.710;2023-05-16T18:09:19;22.60;24.20
43541;DHT22;29549;40.386;-3.710;2023-05-16T18:19:20;22.50;24.30
43541;DHT22;29549;40.386;-3.710;2023-05-16T18:29:20;22.40;24.00
43541;DHT22;29549;40.386;-3.710;2023-05-16T18:39:22;22.40;23.80
43541;DHT22;29549;40.386;-3.710;2023-05-16T18:49:23;22.20;24.30
43541;DHT22;29549;40.386;-3.710;2023-05-16T18:59:23;22.10;25.10
43541;DHT22;29549;40.386;-3.710;2023-05-16T19:09:24;22.00;24.00
43541;DHT22;29549;40.386;-3.710;2023-05-16T19:19:25;21.70;24.80
43541;DHT22;29549;40.386;-3.710;2023-05-16T19:29:25;21.70;24.40
43541;DHT22;29549;40.386;-3.710;2023-05-16T19:39:26;21.20;25.00
43541;DHT22;29549;40.386;-3.710;2023-05-16T19:49:27;21.10;26.30
43541;DHT22;29549;40.386;-3.710;2023-05-16T19:59:27;20.80;26.90
43541;DHT22;29549;40.386;-3.710;2023-05-16T20:09:28;20.40;27.30
43541;DHT22;29549;40.386;-3.710;2023-05-16T20:19:29;20.20;27.80
43541;DHT22;29549;40.386;-3.710;2023-05-16T20:29:30;20.00;28.50
43541;DHT22;29549;40.386;-3.710;2023-05-16T20:39:32;19.70;29.00
43541;DHT22;29549;40.386;-3.710;2023-05-16T20:49:34;19.50;29.20
43541;DHT22;29549;40.386;-3.710;2023-05-16T20:59:39;19.30;29.10
43541;DHT22;29549;40.386;-3.710;2023-05-16T21:09:39;18.90;30.00
43541;DHT22;29549;40.386;-3.710;2023-05-16T21:19:40;18.70;30.90
43541;DHT22;29549;40.386;-3.710;2023-05-16T21:29:41;18.50;31.20
43541;DHT22;29549;40.386;-3.710;2023-05-16T21:39:42;18.20;31.70
43541;DHT22;29549;40.386;-3.710;2023-05-16T21:49:42;18.00;31.70
43541;DHT22;29549;40.386;-3.710;2023-05-16T21:59:43;17.70;32.00
43541;DHT22;29549;40.386;-3.710;2023-05-16T22:09:44;17.40;32.30
43541;DHT22;29549;40.386;-3.710;2023-05-16T22:19:45;17.20;32.80
43541;DHT22;29549;40.386;-3.710;2023-05-16T22:29:45;16.90;32.60
43541;DHT22;29549;40.386;-3.710;2023-05-16T22:39:46;16.60;32.10
43541;DHT22;29549;40.386;-3.710;2023-05-16T22:49:47;16.50;32.30
43541;DHT22;29549;40.386;-3.710;2023-05-16T22:59:47;16.30;32.40
43541;DHT22;29549;40.386;-3.710;2023-05-16T23:09:48;16.10;32.70
43541;DHT22;29549;40.386;-3.710;2023-05-16T23:19:48;15.70;33.30
43541;DHT22;29549;40.386;-3.710;2023-05-16T23:29:49;15.60;33.50
43541;DHT22;29549;40.386;-3.710;2023-05-16T23:39:50;15.60;33.50
43541;DHT22;29549;40.386;-3.710;2023-05-16T23:49:51;15.60;33.50
43541;DHT22;29549;40.386;-3.710;2023-05-16T23:59:51;15.30;34.40
